Time;durP1;ratioP1;P1;durP2;ratioP2;P2;SDS_P1;SDS_P2;PMS_P1;PMS_P2;Temp;Humidity;BMP_temperature;BMP_pressure;BME280_temperature;BME280_humidity;BME280_pressure;Samples;Min_cycle;Max_cycle;Signal;HPM_P1;HPM_P2
2023/12/10 00:00:25;;;;;;;11.67;5.73;;;;;;;2.87;100.00;98901.47;5000964;28;20929;-84
2023/12/10 00:02:59;;;;;;;11.30;6.20;;;;;;;2.76;100.00;98895.31;5004769;28;20425;-84
2023/12/10 00:05:27;;;;;;;11.20;6.03;;;;;;;2.81;100.00;98889.94;5016656;28;20423;-84
2023/12/10 00:07:57;;;;;;;13.23;6.13;;;;;;;2.81;100.00;98907.97;5008241;28;20489;-84
2023/12/10 00:10:30;;;;;;;12.57;6.55;;;;;;;2.74;100.00;98892.13;5006441;28;20901;-84
2023/12/10 00:12:58;;;;;;;11.90;6.23;;;;;;;2.82;100.00;98894.25;5007222;28;21145;-84
2023/12/10 00:15:27;;;;;;;12.10;6.00;;;;;;;2.79;100.00;98892.13;5011923;28;20425;-84
2023/12/10 00:17:55;;;;;;;12.27;6.03;;;;;;;2.83;100.00;98886.97;4999953;28;20887;-84
2023/12/10 00:20:28;;;;;;;10.73;5.90;;;;;;;2.77;100.00;98893.47;5010032;28;20411;-84
2023/12/10 00:22:58;;;;;;;13.90;6.25;;;;;;;2.84;100.00;98878.66;5011387;28;20428;-84
2023/12/10 00:25:31;;;;;;;12.27;6.30;;;;;;;2.78;100.00;98887.00;5004411;28;20447;-84
2023/12/10 00:28:00;;;;;;;13.80;6.43;;;;;;;2.80;100.00;98882.97;5007601;28;20427;-84
2023/12/10 00:30:28;;;;;;;12.07;5.93;;;;;;;2.75;100.00;98880.31;5007506;28;20421;-84
2023/12/10 00:33:03;;;;;;;14.35;6.30;;;;;;;2.74;100.00;98892.13;5003318;28;20433;-83
2023/12/10 00:35:37;;;;;;;11.70;5.60;;;;;;;2.86;100.00;98891.84;5005573;28;20428;-84
2023/12/10 00:38:06;;;;;;;12.13;6.38;;;;;;;2.79;100.00;98897.47;5005006;28;20428;-83
2023/12/10 00:40:40;;;;;;;11.95;6.10;;;;;;;2.80;100.00;98893.69;5002238;28;21186;-84
2023/12/10 00:43:08;;;;;;;12.88;6.10;;;;;;;2.79;100.00;98902.03;5003323;28;20429;-84
2023/12/10 00:45:41;;;;;;;10.88;5.90;;;;;;;2.82;100.00;98898.81;5023912;28;20435;-84
2023/12/10 00:48:16;;;;;;;12.43;6.30;;;;;;;2.93;100.00;98902.25;5009880;28;20494;-84
2023/12/10 00:50:49;;;;;;;10.98;5.60;;;;;;;2.75;100.00;98896.41;5008299;28;20428;-84
2023/12/10 00:53:24;;;;;;;12.40;5.93;;;;;;;2.81;100.00;98905.28;5025428;28;20439;-84
2023/12/10 00:55:57;;;;;;;10.30;5.68;;;;;;;2.72;100.00;98899.63;5013702;28;20964;-84
2023/12/10 00:58:26;;;;;;;11.90;5.63;;;;;;;2.78;100.00;98905.81;5025209;28;20424;-84
2023/12/10 01:01:00;;;;;;;11.25;5.82;;;;;;;2.76;100.00;98891.84;5012620;28;20428;-84
2023/12/10 01:03:33;;;;;;;10.70;6.03;;;;;;;2.76;100.00;98907.97;5014596;28;20945;-84
2023/12/10 01:06:08;;;;;;;14.65;6.57;;;;;;;2.83;100.00;98916.53;5010450;28;20919;-84
2023/12/10 01:08:43;;;;;;;12.38;6.20;;;;;;;2.87;100.00;98918.44;5004645;28;20480;-84
2023/12/10 01:11:17;;;;;;;12.05;6.10;;;;;;;2.77;100.00;98914.94;5009649;28;20428;-84
2023/12/10 01:13:45;;;;;;;12.35;6.25;;;;;;;2.77;100.00;98909.56;5030279;28;20430;-84
2023/12/10 01:16:18;;;;;;;11.35;6.20;;;;;;;2.86;100.00;98916.00;5022710;28;20425;-84
2023/12/10 01:18:47;;;;;;;12.37;6.20;;;;;;;2.89;100.00;98921.63;5016523;28;20444;-84
2023/12/10 01:21:19;;;;;;;13.27;6.40;;;;;;;2.88;100.00;98924.59;5014878;28;20417;-84
2023/12/10 01:23:49;;;;;;;12.13;6.50;;;;;;;2.89;100.00;98924.31;5008597;28;20438;-84
2023/12/10 01:26:19;;;;;;;10.93;6.10;;;;;;;2.82;100.00;98918.44;5013264;28;20424;-84
2023/12/10 01:28:48;;;;;;;11.68;6.38;;;;;;;2.86;100.00;98919.50;5011867;28;20446;-84
2023/12/10 01:31:17;;;;;;;12.00;6.70;;;;;;;2.86;100.00;98929.44;5024875;28;20424;-84
2023/12/10 01:33:45;;;;;;;9.93;5.80;;;;;;;2.97;100.00;98927.50;5025785;28;20413;-84
2023/12/10 01:36:23;;;;;;;12.02;6.38;;;;;;;2.90;100.00;98933.19;5015356;28;20889;-85
2023/12/10 01:38:53;;;;;;;11.57;6.18;;;;;;;2.91;100.00;98936.69;5012740;28;20443;-85
2023/12/10 01:41:27;;;;;;;12.75;6.40;;;;;;;2.91;100.00;98940.16;5015260;28;20421;-85
2023/12/10 01:43:55;;;;;;;10.77;5.85;;;;;;;2.96;100.00;98940.16;5024463;28;20427;-84
2023/12/10 01:46:29;;;;;;;12.00;6.35;;;;;;;2.92;100.00;98949.84;5014321;28;20427;-84
2023/12/10 01:48:59;;;;;;;12.77;6.28;;;;;;;2.87;100.00;98937.22;5012654;28;21228;-84
2023/12/10 01:51:32;;;;;;;11.50;6.40;;;;;;;2.90;100.00;98941.25;5028784;28;20425;-84
2023/12/10 01:54:07;;;;;;;11.75;6.30;;;;;;;2.91;100.00;98944.75;5027041;28;20949;-84
2023/12/10 01:56:36;;;;;;;13.35;6.28;;;;;;;2.92;100.00;98946.34;5016574;28;20432;-84
2023/12/10 01:59:04;;;;;;;12.05;5.93;;;;;;;2.90;100.00;98952.00;5011401;28;20417;-84
2023/12/10 02:01:33;;;;;;;11.68;5.70;;;;;;;2.96;100.00;98939.38;5011024;28;20429;-84
2023/12/10 02:04:04;;;;;;;11.53;5.90;;;;;;;3.06;100.00;98947.38;5009949;28;20449;-84
2023/12/10 02:06:34;;;;;;;12.25;5.97;;;;;;;2.99;100.00;98944.97;5006927;28;20430;-84
2023/12/10 02:09:05;;;;;;;11.70;5.70;;;;;;;3.06;100.00;98950.06;5004593;28;20442;-84
2023/12/10 02:11:40;;;;;;;10.50;5.83;;;;;;;3.03;100.00;98969.44;5024211;28;20421;-84
2023/12/10 02:14:14;;;;;;;11.63;6.03;;;;;;;2.95;100.00;98951.19;5027025;28;20783;-84
2023/12/10 02:16:50;;;;;;;11.02;5.90;;;;;;;2.97;100.00;98949.00;5008433;28;20442;-84
2023/12/10 02:19:23;;;;;;;11.35;6.20;;;;;;;3.00;100.00;98957.34;5012264;28;20436;-84
2023/12/10 02:21:52;;;;;;;11.85;6.18;;;;;;;3.06;100.00;98968.88;5026478;28;20876;-84
2023/12/10 02:24:26;;;;;;;12.50;6.10;;;;;;;3.09;100.00;98959.47;5011867;28;20411;-84
2023/12/10 02:26:56;;;;;;;11.38;5.82;;;;;;;3.01;100.00;98960.84;5009696;28;20968;-84
2023/12/10 02:29:29;;;;;;;11.30;6.45;;;;;;;3.03;100.00;98983.66;5004788;28;20927;-84
2023/12/10 02:32:03;;;;;;;12.63;6.40;;;;;;;3.07;100.00;98962.44;5016713;28;20420;-84
2023/12/10 02:34:36;;;;;;;13.07;6.25;;;;;;;3.10;100.00;98982.59;5009389;28;20441;-84
2023/12/10 02:37:05;;;;;;;11.48;6.00;;;;;;;3.06;100.00;98979.63;5007501;28;20455;-84
2023/12/10 02:39:33;;;;;;;12.23;6.65;;;;;;;3.14;100.00;98968.34;5008252;28;20422;-84
2023/12/10 02:42:03;;;;;;;12.73;5.93;;;;;;;3.16;100.00;98976.13;5006971;28;21015;-84
2023/12/10 02:44:37;;;;;;;10.30;5.50;;;;;;;3.19;100.00;98973.72;5023969;28;20424;-84
2023/12/10 02:47:10;;;;;;;11.70;5.75;;;;;;;3.19;100.00;98967.50;5009088;28;20429;-84
2023/12/10 02:49:43;;;;;;;10.88;6.20;;;;;;;3.31;100.00;98975.28;5005995;28;20423;-84
2023/12/10 02:52:17;;;;;;;10.77;6.03;;;;;;;3.29;100.00;98980.16;5010114;28;20429;-84
2023/12/10 02:54:45;;;;;;;11.32;5.50;;;;;;;3.30;100.00;98969.09;5008927;28;20440;-84
2023/12/10 02:57:16;;;;;;;11.07;5.88;;;;;;;3.31;100.00;98980.66;5009002;28;20436;-84
2023/12/10 02:59:44;;;;;;;11.68;6.15;;;;;;;3.30;100.00;98985.25;5009469;28;20802;-84
2023/12/10 03:02:13;;;;;;;12.10;6.05;;;;;;;3.28;100.00;98976.63;5002365;28;20424;-84
2023/12/10 03:04:41;;;;;;;12.40;6.05;;;;;;;3.32;100.00;98985.75;5003712;28;20426;-84
2023/12/10 03:07:10;;;;;;;14.05;6.63;;;;;;;3.38;100.00;98989.25;5019088;28;20900;-84
2023/12/10 03:09:44;;;;;;;14.73;6.93;;;;;;;3.31;100.00;98994.91;5021701;28;20428;-84
2023/12/10 03:12:18;;;;;;;14.57;6.50;;;;;;;3.29;100.00;98996.28;5008838;28;20448;-84
2023/12/10 03:14:47;;;;;;;14.20;6.43;;;;;;;3.36;100.00;99000.28;5001502;28;20423;-84
2023/12/10 03:17:15;;;;;;;14.65;6.60;;;;;;;3.42;100.00;98994.88;5005405;28;20442;-83
2023/12/10 03:19:45;;;;;;;15.82;7.00;;;;;;;3.42;100.00;98997.56;5004892;28;20431;-84
2023/12/10 03:22:18;;;;;;;13.07;6.70;;;;;;;3.46;100.00;98999.44;5004365;28;20432;-84
2023/12/10 03:24:51;;;;;;;12.90;6.68;;;;;;;3.43;100.00;98999.19;5003085;28;20428;-83
2023/12/10 03:27:21;;;;;;;14.85;7.03;;;;;;;3.45;100.00;99000.50;5016286;28;20428;-83
2023/12/10 03:29:54;;;;;;;16.53;6.90;;;;;;;3.45;100.00;99003.19;5008875;28;20817;-83
2023/12/10 03:32:22;;;;;;;14.35;6.68;;;;;;;3.44;100.00;99006.97;5004878;28;20803;-83
2023/12/10 03:34:51;;;;;;;13.83;6.43;;;;;;;3.48;100.00;98999.97;5001190;28;20424;-84
2023/12/10 03:37:21;;;;;;;14.70;6.40;;;;;;;3.48;100.00;99004.53;5019393;28;20447;-83
2023/12/10 03:39:49;;;;;;;17.38;6.80;;;;;;;3.55;100.00;99005.06;5007784;28;20781;-83
2023/12/10 03:42:17;;;;;;;13.98;6.85;;;;;;;3.55;100.00;99010.44;5001588;28;20415;-83
2023/12/10 03:44:52;;;;;;;16.23;6.70;;;;;;;3.54;100.00;99016.91;5018075;28;20423;-83
2023/12/10 03:47:25;;;;;;;18.33;6.88;;;;;;;3.49;100.00;99020.41;5005932;28;20426;-83
2023/12/10 03:49:59;;;;;;;16.35;6.20;;;;;;;3.44;100.00;99015.06;5006391;28;20429;-83
2023/12/10 03:52:32;;;;;;;13.23;6.40;;;;;;;3.46;100.00;99025.53;4999985;28;20437;-83
2023/12/10 03:55:06;;;;;;;14.38;6.53;;;;;;;3.46;100.00;99023.63;5004892;28;21179;-83
2023/12/10 03:57:35;;;;;;;13.70;6.43;;;;;;;3.45;100.00;99038.16;5007253;28;20455;-83
2023/12/10 04:00:07;;;;;;;14.63;6.60;;;;;;;3.47;100.00;99019.09;5003107;28;20427;-83
2023/12/10 04:02:40;;;;;;;15.07;6.40;;;;;;;3.51;100.00;99036.28;5001071;28;20435;-83
2023/12/10 04:05:11;;;;;;;14.30;6.35;;;;;;;3.52;100.00;99035.19;5001554;28;20424;-83
2023/12/10 04:07:47;;;;;;;16.83;6.50;;;;;;;3.62;100.00;99040.53;5005950;28;20505;-83
2023/12/10 04:10:16;;;;;;;18.08;6.47;;;;;;;3.57;100.00;99043.25;5003496;28;20431;-83
2023/12/10 04:12:49;;;;;;;18.10;6.65;;;;;;;3.60;100.00;99041.91;5005610;28;20465;-83
2023/12/10 04:15:24;;;;;;;18.75;6.75;;;;;;;3.64;100.00;99046.44;5007799;28;20427;-83
2023/12/10 04:17:58;;;;;;;15.80;6.30;;;;;;;3.61;100.00;99043.50;5001986;28;20480;-83
2023/12/10 04:20:26;;;;;;;15.85;6.72;;;;;;;3.65;100.00;99052.66;5004639;28;20966;-83
2023/12/10 04:22:59;;;;;;;20.20;6.47;;;;;;;3.67;100.00;99053.97;5000020;28;20858;-83
2023/12/10 04:25:32;;;;;;;21.55;6.50;;;;;;;3.73;100.00;99063.63;4999186;28;20443;-83
2023/12/10 04:28:01;;;;;;;16.97;6.60;;;;;;;3.75;100.00;99058.78;5005518;28;20427;-83
2023/12/10 04:30:35;;;;;;;14.43;6.35;;;;;;;3.75;100.00;99060.66;5009732;28;20443;-83
2023/12/10 04:33:09;;;;;;;18.77;6.55;;;;;;;3.82;100.00;99063.06;5000317;28;20434;-83
2023/12/10 04:35:42;;;;;;;18.42;6.47;;;;;;;3.86;100.00;99069.53;5005698;28;20444;-83
2023/12/10 04:38:17;;;;;;;15.82;6.07;;;;;;;3.89;100.00;99077.03;4996962;28;20457;-83
2023/12/10 04:40:45;;;;;;;19.67;6.03;;;;;;;3.86;100.00;99081.09;5005959;28;20451;-83
2023/12/10 04:43:19;;;;;;;18.55;5.80;;;;;;;3.94;100.00;99089.69;5002064;28;20436;-83
2023/12/10 04:45:54;;;;;;;18.80;5.72;;;;;;;3.94;100.00;99082.41;5005917;28;20434;-83
2023/12/10 04:48:27;;;;;;;19.85;6.18;;;;;;;3.97;100.00;99081.06;5000364;28;20424;-83
2023/12/10 04:51:01;;;;;;;20.77;5.30;;;;;;;3.99;100.00;99081.56;5012611;28;20806;-82
2023/12/10 04:53:34;;;;;;;20.20;5.13;;;;;;;3.99;100.00;99071.63;5005135;28;20928;-83
2023/12/10 04:56:02;;;;;;;17.50;5.22;;;;;;;3.84;100.00;99077.88;4999162;28;20438;-83
2023/12/10 04:58:31;;;;;;;18.98;5.22;;;;;;;3.77;100.00;99077.38;5000147;28;20449;-83
2023/12/10 05:01:06;;;;;;;19.10;4.50;;;;;;;3.73;100.00;99087.06;5015884;28;20447;-83
2023/12/10 05:03:39;;;;;;;16.45;4.55;;;;;;;3.69;100.00;99083.31;5004023;28;20660;-82
2023/12/10 05:06:12;;;;;;;16.23;4.68;;;;;;;3.92;100.00;99082.69;5005031;28;20432;-83
2023/12/10 05:08:46;;;;;;;19.42;4.85;;;;;;;3.93;100.00;99088.88;5000735;28;20901;-83
2023/12/10 05:11:14;;;;;;;19.70;4.80;;;;;;;4.09;100.00;99084.25;5004280;28;20447;-83
2023/12/10 05:13:47;;;;;;;23.25;5.72;;;;;;;4.16;100.00;99082.03;5014148;28;20441;-82
2023/12/10 05:16:22;;;;;;;17.73;4.97;;;;;;;4.26;100.00;99087.38;5002529;28;20436;-83
2023/12/10 05:18:50;;;;;;;23.33;7.00;;;;;;;4.14;100.00;99084.19;5004546;28;20790;-83
2023/12/10 05:21:23;;;;;;;21.55;5.50;;;;;;;4.15;100.00;99083.13;5011843;28;20424;-83
2023/12/10 05:23:52;;;;;;;17.27;4.70;;;;;;;4.17;100.00;99088.22;5002924;28;20431;-83
2023/12/10 05:26:20;;;;;;;21.10;4.10;;;;;;;4.16;100.00;99086.63;4999831;28;20418;-83
2023/12/10 05:28:53;;;;;;;25.73;4.60;;;;;;;4.25;100.00;99091.16;5004391;28;20432;-82
2023/12/10 05:31:28;;;;;;;20.95;4.45;;;;;;;4.39;100.00;99088.66;4999075;28;20433;-83
2023/12/10 05:34:01;;;;;;;25.10;5.80;;;;;;;4.32;100.00;99093.53;5005888;28;20445;-83
2023/12/10 05:36:34;;;;;;;26.10;5.78;;;;;;;4.40;100.00;99081.38;5000554;28;20444;-83
2023/12/10 05:39:08;;;;;;;19.58;3.58;;;;;;;4.51;100.00;99088.31;5007309;28;20425;-83
2023/12/10 05:41:36;;;;;;;20.58;4.38;;;;;;;4.52;100.00;99092.63;5016175;28;20910;-83
2023/12/10 05:44:09;;;;;;;21.50;3.65;;;;;;;4.57;100.00;99097.16;5005031;28;20451;-83
2023/12/10 05:46:44;;;;;;;23.73;3.83;;;;;;;4.59;100.00;99098.50;5002906;28;20865;-83
2023/12/10 05:49:12;;;;;;;18.48;3.15;;;;;;;4.67;100.00;99099.00;5011809;28;20402;-83
2023/12/10 05:51:46;;;;;;;4.97;2.10;;;;;;;4.75;100.00;99091.13;5021097;28;20061;-82
2023/12/10 05:54:19;;;;;;;17.90;2.80;;;;;;;4.69;100.00;99083.38;5011054;28;20049;-83
2023/12/10 05:56:47;;;;;;;16.48;3.65;;;;;;;4.66;100.00;99090.13;5003584;28;20061;-83
2023/12/10 05:59:20;;;;;;;8.50;2.08;;;;;;;4.63;100.00;99092.56;5002258;28;20057;-82
2023/12/10 06:01:50;;;;;;;12.32;2.40;;;;;;;4.61;100.00;99098.22;4999370;28;20054;-83
2023/12/10 06:04:23;;;;;;;9.35;2.00;;;;;;;4.62;100.00;99101.75;5000699;28;20795;-83
2023/12/10 06:06:52;;;;;;;17.15;2.15;;;;;;;4.58;100.00;99102.31;5020652;28;20530;-83
2023/12/10 06:09:25;;;;;;;7.35;1.42;;;;;;;4.59;100.00;99103.09;5016859;28;20057;-83
2023/12/10 06:11:53;;;;;;;17.52;2.63;;;;;;;4.61;100.00;99111.69;5004080;28;20049;-83
2023/12/10 06:14:22;;;;;;;11.63;2.13;;;;;;;4.62;100.00;99109.81;5001838;28;20499;-83
2023/12/10 06:16:56;;;;;;;10.98;1.92;;;;;;;4.65;100.00;99112.75;5000682;28;20057;-82
2023/12/10 06:19:30;;;;;;;13.98;2.50;;;;;;;4.64;100.00;99113.84;5014464;28;20049;-83
2023/12/10 06:22:03;;;;;;;9.00;2.30;;;;;;;4.63;100.00;99112.22;5015267;28;20487;-82
2023/12/10 06:24:32;;;;;;;7.40;1.63;;;;;;;4.63;100.00;99109.53;5001501;28;20050;-83
2023/12/10 06:27:05;;;;;;;8.30;1.75;;;;;;;4.57;100.00;99113.34;5003364;28;20668;-83
2023/12/10 06:29:33;;;;;;;11.05;2.95;;;;;;;4.59;100.00;99117.38;5005695;28;20050;-83
2023/12/10 06:32:08;;;;;;;9.55;2.90;;;;;;;4.64;100.00;99115.72;5002414;28;20042;-83
2023/12/10 06:34:41;;;;;;;5.78;2.15;;;;;;;4.64;100.00;99113.03;5007395;28;20064;-83
2023/12/10 06:37:10;;;;;;;6.00;2.03;;;;;;;4.60;100.00;99110.91;4999902;28;20521;-83
2023/12/10 06:39:38;;;;;;;5.13;1.60;;;;;;;4.63;100.00;99109.53;5018245;28;20054;-83
2023/12/10 06:42:11;;;;;;;8.00;2.85;;;;;;;4.65;100.00;99120.03;5005913;28;20073;-83
2023/12/10 06:44:44;;;;;;;3.45;1.38;;;;;;;4.63;100.00;99123.00;4998354;28;20054;-83
2023/12/10 06:47:14;;;;;;;9.30;2.13;;;;;;;4.61;100.00;99119.78;5003077;28;20069;-83
2023/12/10 06:49:47;;;;;;;2.13;1.23;;;;;;;4.61;100.00;99111.69;5001778;28;20061;-82
2023/12/10 06:52:21;;;;;;;9.68;1.75;;;;;;;4.64;100.00;99110.34;4999388;28;20053;-83
2023/12/10 06:54:54;;;;;;;13.23;2.55;;;;;;;4.66;100.00;99117.06;5003248;28;20061;-83
2023/12/10 06:57:27;;;;;;;2.95;1.10;;;;;;;4.70;100.00;99118.13;5007155;28;20057;-83
2023/12/10 07:00:00;;;;;;;1.77;1.38;;;;;;;4.68;100.00;99116.78;5013383;28;20054;-83
2023/12/10 07:02:35;;;;;;;8.35;2.25;;;;;;;4.69;100.00;99119.19;5000987;28;20042;-82
2023/12/10 07:05:08;;;;;;;7.07;2.10;;;;;;;4.68;100.00;99114.09;5003052;28;20592;-83
2023/12/10 07:07:37;;;;;;;12.18;2.25;;;;;;;4.73;100.00;99128.31;5001406;28;20058;-83
2023/12/10 07:10:10;;;;;;;13.63;2.10;;;;;;;4.69;100.00;99123.78;5003822;28;20058;-83
2023/12/10 07:12:39;;;;;;;4.63;1.40;;;;;;;4.71;100.00;99124.28;5003709;28;20057;-83
2023/12/10 07:15:08;;;;;;;12.20;1.70;;;;;;;4.80;100.00;99136.09;5003414;28;20414;-83
2023/12/10 07:17:38;;;;;;;7.32;1.88;;;;;;;4.81;100.00;99132.34;5017829;28;20058;-83
2023/12/10 07:20:12;;;;;;;3.42;1.83;;;;;;;4.83;100.00;99130.16;4999579;28;20062;-83
2023/12/10 07:22:45;;;;;;;5.45;1.67;;;;;;;4.83;100.00;99140.13;5002723;28;20050;-83
2023/12/10 07:25:19;;;;;;;8.95;2.22;;;;;;;4.86;100.00;99139.56;5008335;28;20060;-83
2023/12/10 07:27:47;;;;;;;7.95;2.17;;;;;;;4.81;100.00;99136.94;5003824;28;20049;-83
2023/12/10 07:30:21;;;;;;;12.93;1.67;;;;;;;4.79;100.00;99136.38;5016412;28;20057;-84
2023/12/10 07:32:50;;;;;;;5.22;1.85;;;;;;;4.81;100.00;99134.22;5001771;28;20054;-83
2023/12/10 07:35:24;;;;;;;12.95;1.73;;;;;;;4.77;100.00;99136.66;5014223;28;20050;-83
2023/12/10 07:37:52;;;;;;;9.80;2.10;;;;;;;4.86;100.00;99137.69;5002868;28;20038;-83
2023/12/10 07:40:20;;;;;;;8.98;1.90;;;;;;;4.86;100.00;99136.88;5004264;28;20057;-83
2023/12/10 07:42:54;;;;;;;7.38;1.83;;;;;;;4.88;100.00;99140.09;4999207;28;20050;-84
2023/12/10 07:45:28;;;;;;;8.02;3.13;;;;;;;4.98;100.00;99139.22;5007036;28;20077;-83
2023/12/10 07:47:57;;;;;;;13.13;2.65;;;;;;;4.92;100.00;99136.56;5009180;28;20482;-82
2023/12/10 07:50:30;;;;;;;14.93;2.00;;;;;;;4.95;100.00;99140.59;5001729;28;20046;-83
2023/12/10 07:53:04;;;;;;;7.40;2.03;;;;;;;4.87;100.00;99139.28;5003418;28;20054;-83
2023/12/10 07:55:32;;;;;;;8.80;2.40;;;;;;;4.91;100.00;99142.25;5013301;28;20042;-83
2023/12/10 07:58:05;;;;;;;9.15;2.65;;;;;;;4.95;100.00;99124.41;4998385;28;20054;-83
2023/12/10 08:00:34;;;;;;;17.85;2.22;;;;;;;5.04;100.00;99124.63;5003440;28;20049;-82
2023/12/10 08:03:05;;;;;;;6.68;1.77;;;;;;;4.99;100.00;99130.88;5004160;28;20049;-83
2023/12/10 08:05:33;;;;;;;6.32;1.98;;;;;;;5.02;100.00;99127.59;4997330;28;20061;-83
2023/12/10 08:08:03;;;;;;;8.98;1.95;;;;;;;5.01;100.00;99128.66;4998304;28;20046;-83
2023/12/10 08:10:36;;;;;;;6.55;1.10;;;;;;;4.96;100.00;99128.72;5000470;28;20046;-84
2023/12/10 08:13:09;;;;;;;1.98;1.25;;;;;;;5.01;100.00;99125.19;5015121;28;20053;-83
2023/12/10 08:15:43;;;;;;;4.78;1.63;;;;;;;5.05;100.00;99127.03;5016770;28;20117;-84
2023/12/10 08:18:17;;;;;;;7.05;2.42;;;;;;;5.10;100.00;99135.09;5013894;28;20060;-83
2023/12/10 08:20:46;;;;;;;7.25;1.88;;;;;;;5.08;100.00;99134.56;4998896;28;20043;-83
2023/12/10 08:23:19;;;;;;;7.15;2.22;;;;;;;5.03;100.00;99131.13;5007472;28;20053;-83
2023/12/10 08:25:51;;;;;;;9.65;2.53;;;;;;;5.06;100.00;99139.44;5005217;28;20060;-85
2023/12/10 08:28:24;;;;;;;9.45;3.03;;;;;;;5.04;100.00;99132.69;4998727;28;20053;-82
2023/12/10 08:31:01;;;;;;;7.45;1.60;;;;;;;5.03;100.00;99134.59;5002974;28;20049;-89
2023/12/10 08:33:33;;;;;;;5.63;1.75;;;;;;;5.07;100.00;99132.97;4999133;28;20050;-83
2023/12/10 08:36:08;;;;;;;5.95;1.60;;;;;;;5.09;100.00;99135.38;5015237;28;20045;-81
2023/12/10 08:38:51;;;;;;;5.28;1.30;;;;;;;5.14;100.00;99139.91;4998110;28;20054;-85
2023/12/10 08:41:25;;;;;;;5.75;1.70;;;;;;;5.13;100.00;99132.94;5011943;28;20049;-82
2023/12/10 08:43:58;;;;;;;10.07;2.25;;;;;;;5.14;100.00;99143.44;5012452;28;20057;-80
2023/12/10 08:46:31;;;;;;;6.15;2.08;;;;;;;5.20;100.00;99134.19;4995229;28;20050;-81
2023/12/10 08:49:01;;;;;;;4.60;1.77;;;;;;;5.23;100.00;99136.34;4997533;28;20514;-81
2023/12/10 08:51:29;;;;;;;8.20;1.63;;;;;;;5.25;100.00;99133.38;4993292;28;20045;-81
2023/12/10 08:54:03;;;;;;;9.88;2.80;;;;;;;5.26;100.00;99137.66;5000169;28;20046;-80
2023/12/10 08:56:36;;;;;;;5.68;1.85;;;;;;;5.23;100.00;99139.06;4997266;28;20054;-80
2023/12/10 08:59:04;;;;;;;;;;;;;;;5.29;100.00;99131.72;4998080;28;20053;-80
2023/12/10 09:01:37;;;;;;;;;;;;;;;5.30;100.00;99141.41;4997909;28;20229;-80
2023/12/10 09:04:07;;;;;;;;;;;;;;;5.37;100.00;99130.28;4996479;28;19926;-80
2023/12/10 09:06:35;;;;;;;;;;;;;;;5.28;100.00;99140.91;4994553;28;19929;-80
2023/12/10 09:09:08;;;;;;;;;;;;;;;5.32;100.00;99141.13;5008636;28;19936;-79
2023/12/10 09:11:42;;;;;;;;;;;;;;;5.34;100.00;99144.34;5000521;28;19936;-81
2023/12/10 09:14:15;;;;;;;;;;;;;;;5.32;100.00;99141.94;5005348;28;19936;-80
2023/12/10 09:16:48;;;;;;;;;;;;;;;5.31;100.00;99147.63;4999770;28;19940;-79
2023/12/10 09:19:24;;;;;;;;;;;;;;;5.29;100.00;99142.50;4995055;28;20558;-80
2023/12/10 09:21:52;;;;;;;;;;;;;;;5.29;100.00;99150.59;4997006;28;19928;-79
2023/12/10 09:24:26;;;;;;;;;;;;;;;5.35;100.00;99148.66;5001609;28;19925;-79
2023/12/10 09:27:00;;;;;;;;;;;;;;;5.28;100.00;99148.97;5005242;28;19929;-79
2023/12/10 09:29:28;;;;;;;;;;;;;;;5.36;100.00;99150.25;5006751;28;19926;-79
2023/12/10 09:32:01;;;;;;;;;;;;;;;5.30;100.00;99156.78;5021537;28;19951;-79
2023/12/10 09:34:35;;;;;;;;;;;;;;;5.40;100.00;99152.13;5007394;28;19928;-79
2023/12/10 09:37:04;;;;;;;;;;;;;;;5.38;100.00;99158.88;5001886;28;19956;-80
2023/12/10 09:39:37;;;;;;;;;;;;;;;5.44;100.00;99150.47;5003411;28;20429;-80
2023/12/10 09:42:10;;;;;;;;;;;;;;;5.43;100.00;99154.25;4995781;28;20325;-79
2023/12/10 09:44:43;;;;;;;;;;;;;;;5.49;100.00;99146.13;5004841;28;19932;-79
2023/12/10 09:47:11;;;;;;;;;;;;;;;5.47;100.00;99157.19;4999601;28;19929;-79
2023/12/10 09:49:47;;;;;;;;;;;;;;;5.46;100.00;99152.88;4999481;28;20295;-80
2023/12/10 09:52:15;;;;;;;;;;;;;;;5.47;100.00;99151.78;5001336;28;19933;-80
2023/12/10 09:54:44;;;;;;;;;;;;;;;5.43;100.00;99145.34;4999744;28;19925;-80
2023/12/10 09:57:13;;;;;;;;;;;;;;;5.47;100.00;99149.09;5006782;28;20290;-80
2023/12/10 09:59:46;;;;;;;;;;;;;;;5.49;100.00;99146.91;4999283;28;20433;-79
2023/12/10 10:02:15;;;;;;;;;;;;;;;5.58;100.00;99155.22;5002207;28;19925;-81
2023/12/10 10:04:50;;;;;;;;;;;;;;;5.49;100.00;99149.59;5005519;28;20793;-80
2023/12/10 10:07:23;;;;;;;;;;;;;;;5.52;100.00;99146.34;4998754;28;19933;-80
2023/12/10 10:09:56;;;;;;;;;;;;;;;5.52;100.00;99148.25;5000676;28;19949;-79
2023/12/10 10:12:28;;;;;;;;;;;;;;;5.53;100.00;99147.94;4997499;28;19933;-79
2023/12/10 10:14:57;;;;;;;;;;;;;;;5.59;100.00;99143.31;5006656;28;19929;-79
2023/12/10 10:17:26;;;;;;;;;;;;;;;5.54;100.00;99148.78;5001267;28;19933;-79
2023/12/10 10:20:00;;;;;;;;;;;;;;;5.57;100.00;99153.59;5005090;28;19922;-80
2023/12/10 10:22:28;;;;;;;;;;;;;;;5.60;100.00;99159.22;4998766;28;19922;-79
2023/12/10 10:24:57;;;;;;;;;;;;;;;5.61;100.00;99157.34;5007767;28;19922;-79
2023/12/10 10:27:31;;;;;;;;;;;;;;;5.60;100.00;99150.31;5001253;28;19937;-81
2023/12/10 10:29:59;;;;;;;;;;;;;;;5.66;100.00;99149.16;4999795;28;19933;-82
2023/12/10 10:32:33;;;;;;;;;;;;;;;5.66;100.00;99157.28;5000366;28;19932;-83
2023/12/10 10:35:04;;;;;;;;;;;;;;;5.65;100.00;99152.16;5003844;28;20813;-81
2023/12/10 10:37:37;;;;;;;;;;;;;;;5.66;100.00;99153.78;5007854;28;19925;-79
2023/12/10 10:40:10;;;;;;;;;;;;;;;5.70;100.00;99157.50;5007505;28;19933;-79
2023/12/10 10:42:46;;;;;;;;;;;;;;;5.57;100.00;99162.47;4998189;28;19930;-82
2023/12/10 10:45:14;;;;;;;;;;;;;;;5.61;100.00;99155.44;5002772;28;19925;-79
2023/12/10 10:47:43;;;;;;;;;;;;;;;5.64;100.00;99153.28;4996627;28;19926;-81
2023/12/10 10:50:19;;;;;;;;;;;;;;;5.69;100.00;99155.91;4998641;28;19925;-79
2023/12/10 10:52:53;;;;;;;;;;;;;;;5.74;100.00;99153.94;4997302;28;19936;-79
2023/12/10 10:55:27;;;;;;;;;;;;;;;5.76;100.00;99156.41;5003636;28;19925;-78
2023/12/10 10:57:55;;;;;;;;;;;;;;;5.81;100.00;99156.31;5015650;28;19925;-79
2023/12/10 11:00:36;;;;;;;;;;;;;;;5.79;100.00;99153.91;5015691;28;20381;-79
2023/12/10 11:03:07;;;;;;;;;;;;;;;5.88;100.00;99161.38;4999338;28;19925;-79
2023/12/10 11:05:42;;;;;;;;;;;;;;;5.88;100.00;99158.69;4998462;28;19937;-79
2023/12/10 11:08:12;;;;;;;;;;;;;;;5.90;100.00;99165.41;4999428;28;19937;-79
2023/12/10 11:10:41;;;;;;;;;;;;;;;5.92;100.00;99165.13;4998288;28;20219;-78
2023/12/10 11:13:14;;;;;;;;;;;;;;;5.92;100.00;99157.03;4997662;28;19932;-78
2023/12/10 11:15:57;;;;;;;;;;;;;;;5.93;100.00;99154.03;4997876;28;19936;-78
2023/12/10 11:18:25;;;;;;;;;;;;;;;5.93;100.00;99158.63;4998873;28;20445;-79
2023/12/10 11:20:59;;;;;;;;;;;;;;;5.95;100.00;99156.44;4996624;28;19929;-79
2023/12/10 11:23:32;;;;;;;;;;;;;;;6.05;100.00;99163.66;5000799;28;19932;-79
2023/12/10 11:26:06;;;;;;;;;;;;;;;6.00;100.00;99163.72;5002007;28;20653;-79
2023/12/10 11:28:39;;;;;;;;;;;;;;;6.12;100.00;99164.94;5005298;28;19937;-79
2023/12/10 11:31:07;;;;;;;;;;;;;;;6.05;100.00;99161.78;4999542;28;19922;-79
2023/12/10 11:33:38;;;;;;;;;;;;;;;6.09;100.00;99170.09;4997570;28;19932;-79
2023/12/10 11:36:08;;;;;;;;;;;;;;;6.09;100.00;99170.91;5002849;28;19929;-79
2023/12/10 11:38:45;;;;;;;;;;;;;;;6.13;100.00;99168.44;5001463;28;19952;-78
2023/12/10 11:41:19;;;;;;;;;;;;;;;6.14;100.00;99175.44;5001831;28;19921;-79
2023/12/10 11:43:47;;;;;;;;;;;;;;;6.20;100.00;99179.72;5004756;28;19928;-79
2023/12/10 11:46:21;;;;;;;;;;;;;;;6.28;100.00;99189.91;5001244;28;19929;-79
2023/12/10 11:48:50;;;;;;;;;;;;;;;6.24;100.00;99183.44;5003085;28;20043;-79
2023/12/10 11:51:24;;;;;;;;;;;;;;;6.28;100.00;99187.19;4998132;28;19925;-79
2023/12/10 11:53:57;;;;;;;;;;;;;;;6.33;100.00;99194.44;4996113;28;19938;-79
2023/12/10 11:56:26;;;;;;;;;;;;;;;6.41;100.00;99196.50;4995709;28;19925;-79
2023/12/10 11:58:59;;;;;;;;;;;;;;;6.43;100.00;99194.28;4996390;28;20326;-79
2023/12/10 12:01:27;;;;;;;;;;;;;;;6.46;100.00;99201.03;4996589;28;20300;-79
2023/12/10 12:04:00;;;;;;;;;;;;;;;6.54;100.00;99197.69;4997003;28;19922;-79
2023/12/10 12:06:41;;;;;;;;;;;;;;;6.64;100.00;99205.69;4999892;28;20282;-79